createdAt,value
2018-12-27T00:00:36.751Z,0.00
2018-12-27T00:01:36.653Z,0.00
2018-12-27T00:02:36.672Z,0.00
2018-12-27T00:03:36.639Z,0.00
2018-12-27T00:04:36.673Z,0.00
2018-12-27T00:05:36.618Z,0.00
2018-12-27T00:06:36.598Z,0.00
2018-12-27T00:07:36.594Z,0.00
2018-12-27T00:08:36.577Z,0.00
2018-12-27T00:09:36.575Z,0.00
2018-12-27T00:10:36.567Z,0.00
2018-12-27T00:11:36.546Z,0.00
2018-12-27T00:12:36.535Z,0.00
2018-12-27T00:13:36.526Z,0.00
2018-12-27T00:14:36.513Z,0.00
2018-12-27T00:15:36.511Z,0.00
2018-12-27T00:16:36.501Z,0.00
2018-12-27T00:17:36.479Z,0.00
2018-12-27T00:18:36.469Z,0.00
2018-12-27T00:19:36.472Z,0.00
2018-12-27T00:20:36.452Z,0.00
2018-12-27T00:21:36.446Z,0.00
2018-12-27T00:22:36.436Z,0.00
2018-12-27T00:23:36.435Z,0.00
2018-12-27T00:24:36.407Z,0.00
2018-12-27T00:25:36.408Z,0.00
2018-12-27T00:26:36.380Z,0.00
2018-12-27T00:27:36.380Z,0.00
2018-12-27T00:28:36.364Z,0.00
2018-12-27T00:29:36.449Z,0.00
2018-12-27T00:30:36.359Z,0.00
2018-12-27T00:31:36.332Z,0.00
2018-12-27T00:32:36.437Z,0.00
2018-12-27T00:33:36.346Z,0.00
2018-12-27T00:34:36.322Z,0.00
2018-12-27T00:35:36.288Z,0.00
2018-12-27T00:36:36.278Z,0.00
2018-12-27T00:37:36.262Z,0.00
2018-12-27T00:38:36.262Z,0.00
2018-12-27T00:39:36.258Z,0.00
2018-12-27T00:40:36.258Z,0.00
2018-12-27T00:41:36.221Z,0.00
2018-12-27T00:42:36.225Z,0.00
2018-12-27T00:43:36.204Z,0.00
2018-12-27T00:44:36.189Z,0.00
2018-12-27T00:45:36.186Z,0.00
2018-12-27T00:46:36.188Z,0.00
2018-12-27T00:47:36.294Z,0.00
2018-12-27T00:48:36.147Z,0.00
2018-12-27T00:49:36.140Z,0.00
2018-12-27T00:50:36.177Z,0.00
2018-12-27T00:51:36.125Z,0.00
2018-12-27T00:52:36.107Z,0.00
2018-12-27T00:53:36.094Z,0.00
2018-12-27T00:54:36.100Z,0.00
2018-12-27T00:55:36.076Z,0.00
2018-12-27T00:56:36.068Z,0.00
2018-12-27T00:57:36.256Z,0.00
2018-12-27T00:58:36.043Z,0.00
2018-12-27T00:59:36.034Z,0.00
2018-12-27T01:00:36.124Z,0.00
2018-12-27T01:01:36.024Z,0.00
2018-12-27T01:02:36.104Z,0.00
2018-12-27T01:03:35.987Z,0.00
2018-12-27T01:04:35.983Z,0.00
2018-12-27T01:05:36.408Z,0.00
2018-12-27T01:06:35.955Z,0.00
2018-12-27T01:07:35.960Z,0.00
2018-12-27T01:08:35.963Z,0.00
2018-12-27T01:09:35.932Z,0.00
2018-12-27T01:10:35.915Z,0.00
2018-12-27T01:11:35.931Z,0.00
2018-12-27T01:12:35.909Z,0.00
2018-12-27T01:13:36.025Z,0.00
2018-12-27T01:14:35.874Z,0.00
2018-12-27T01:15:35.959Z,0.00
2018-12-27T01:16:35.871Z,0.00
2018-12-27T01:17:35.836Z,0.00
2018-12-27T01:18:35.869Z,0.00
2018-12-27T01:19:35.822Z,0.00
2018-12-27T01:20:35.825Z,0.00
2018-12-27T01:21:35.796Z,0.00
2018-12-27T01:22:35.795Z,0.00
2018-12-27T01:23:36.287Z,0.00
2018-12-27T01:24:35.777Z,0.00
2018-12-27T01:25:35.765Z,0.00
2018-12-27T01:26:35.793Z,0.00
2018-12-27T01:27:35.866Z,0.00
2018-12-27T01:28:35.835Z,0.00
2018-12-27T01:29:35.741Z,0.00
2018-12-27T01:30:35.707Z,0.00
2018-12-27T01:31:35.813Z,0.00
2018-12-27T01:32:35.707Z,0.00
2018-12-27T01:33:35.724Z,0.00
2018-12-27T01:34:35.670Z,0.00
2018-12-27T01:35:35.663Z,0.00
2018-12-27T01:36:35.827Z,0.00
2018-12-27T01:37:35.638Z,0.00
2018-12-27T01:38:35.726Z,0.00
2018-12-27T01:39:35.639Z,0.00
2018-12-27T01:40:35.650Z,0.00
2018-12-27T01:41:35.616Z,0.00
2018-12-27T01:42:35.616Z,0.00
2018-12-27T01:43:35.569Z,0.00
2018-12-27T01:44:35.679Z,0.00
2018-12-27T01:45:35.568Z,0.00
2018-12-27T01:46:35.696Z,0.00
2018-12-27T01:47:35.521Z,0.00
2018-12-27T01:48:36.018Z,0.00
2018-12-27T01:49:35.508Z,0.00
2018-12-27T01:50:35.503Z,0.00
2018-12-27T01:51:35.487Z,0.00
2018-12-27T01:52:35.490Z,0.00
2018-12-27T01:53:35.455Z,0.00
2018-12-27T01:54:35.491Z,0.00
2018-12-27T01:55:35.457Z,0.00
2018-12-27T01:56:35.423Z,0.00
2018-12-27T01:57:35.413Z,0.00
2018-12-27T01:58:35.446Z,0.00
2018-12-27T01:59:35.577Z,0.00
2018-12-27T02:00:35.400Z,0.00
2018-12-27T02:01:35.544Z,0.00
2018-12-27T02:02:35.378Z,0.00
2018-12-27T02:03:35.371Z,0.00
2018-12-27T02:04:35.613Z,0.00
2018-12-27T02:05:35.375Z,0.00
2018-12-27T02:06:35.494Z,0.00
2018-12-27T02:07:35.305Z,0.00
2018-12-27T02:08:35.293Z,0.00
2018-12-27T02:09:35.321Z,0.00
2018-12-27T02:10:35.292Z,0.00
2018-12-27T02:11:35.265Z,0.00
2018-12-27T02:12:35.252Z,0.00
2018-12-27T02:13:35.310Z,0.00
2018-12-27T02:14:35.223Z,0.00
2018-12-27T02:15:35.215Z,0.00
2018-12-27T02:16:35.201Z,0.00
2018-12-27T02:17:35.185Z,0.00
2018-12-27T02:18:35.173Z,0.00
2018-12-27T02:19:35.174Z,0.00
2018-12-27T02:20:35.165Z,0.00
2018-12-27T02:21:35.152Z,0.00
2018-12-27T02:22:35.138Z,0.00
2018-12-27T02:23:35.179Z,0.00
2018-12-27T02:24:35.115Z,0.00
2018-12-27T02:25:35.103Z,0.00
2018-12-27T02:26:35.093Z,0.00
2018-12-27T02:27:35.108Z,0.00
2018-12-27T02:28:35.073Z,0.00
2018-12-27T02:29:35.101Z,0.00
2018-12-27T02:30:35.056Z,0.00
2018-12-27T02:31:37.139Z,0.00
2018-12-27T02:32:35.042Z,0.00
2018-12-27T02:33:35.780Z,0.00
2018-12-27T02:34:35.012Z,0.00
2018-12-27T02:35:35.029Z,0.00
2018-12-27T02:36:35.005Z,0.00
2018-12-27T02:37:35.028Z,0.00
2018-12-27T02:38:34.972Z,0.00
2018-12-27T02:39:34.992Z,0.00
2018-12-27T02:40:34.947Z,0.00
2018-12-27T02:41:34.938Z,0.00
2018-12-27T02:42:34.938Z,0.00
2018-12-27T02:43:34.925Z,0.00
2018-12-27T02:44:34.905Z,0.00
2018-12-27T02:45:34.894Z,0.00
2018-12-27T02:46:34.883Z,0.00
2018-12-27T02:47:34.871Z,0.00
2018-12-27T02:48:34.990Z,0.00
2018-12-27T02:49:34.853Z,0.00
2018-12-27T02:50:34.851Z,0.00
2018-12-27T02:51:34.850Z,0.00
2018-12-27T02:52:34.906Z,0.00
2018-12-27T02:53:34.805Z,0.00
2018-12-27T02:54:34.933Z,0.00
2018-12-27T02:55:34.791Z,0.00
2018-12-27T02:56:34.773Z,0.00
2018-12-27T02:57:34.763Z,0.00
2018-12-27T02:58:34.758Z,0.00
2018-12-27T02:59:34.784Z,0.00
2018-12-27T03:00:34.735Z,0.00
2018-12-27T03:01:34.730Z,0.00
2018-12-27T03:02:34.715Z,0.00
2018-12-27T03:03:34.720Z,0.00
2018-12-27T03:04:34.698Z,0.00
2018-12-27T03:05:34.676Z,0.00
2018-12-27T03:06:34.672Z,0.00
2018-12-27T03:07:34.662Z,0.00
2018-12-27T03:08:34.652Z,0.00
2018-12-27T03:09:34.639Z,0.00
2018-12-27T03:10:34.625Z,0.00
2018-12-27T03:11:34.629Z,0.00
2018-12-27T03:12:34.609Z,0.00
2018-12-27T03:13:34.616Z,0.00
2018-12-27T03:14:34.583Z,0.00
2018-12-27T03:15:34.577Z,0.00
2018-12-27T03:16:34.565Z,0.00
2018-12-27T03:17:34.554Z,0.00
2018-12-27T03:18:34.538Z,0.00
2018-12-27T03:19:34.542Z,0.00
2018-12-27T03:20:34.522Z,0.00
2018-12-27T03:21:34.510Z,0.00
2018-12-27T03:22:34.501Z,0.00
2018-12-27T03:23:34.495Z,0.00
2018-12-27T03:24:34.486Z,0.00
2018-12-27T03:25:34.468Z,0.00
2018-12-27T03:26:34.479Z,0.00
2018-12-27T03:27:34.442Z,0.00
2018-12-27T03:28:34.435Z,0.00
2018-12-27T03:29:34.436Z,0.00
2018-12-27T03:30:34.415Z,0.00
2018-12-27T03:31:34.415Z,0.00
2018-12-27T03:32:34.430Z,0.00
2018-12-27T03:33:34.378Z,0.00
2018-12-27T03:34:34.400Z,0.00
2018-12-27T03:35:34.364Z,0.00
2018-12-27T03:36:34.372Z,0.00
2018-12-27T03:37:34.338Z,0.00
2018-12-27T03:38:34.330Z,0.00
2018-12-27T03:39:34.322Z,0.00
2018-12-27T03:40:34.304Z,0.00
2018-12-27T03:41:34.299Z,0.00
2018-12-27T03:42:34.290Z,0.00
2018-12-27T03:43:34.332Z,0.00
2018-12-27T03:44:34.262Z,0.00
2018-12-27T03:45:34.252Z,0.00
2018-12-27T03:46:34.243Z,0.00
2018-12-27T03:47:34.232Z,0.00
2018-12-27T03:48:34.256Z,0.00
2018-12-27T03:49:34.262Z,0.00
2018-12-27T03:50:34.201Z,0.00
2018-12-27T03:51:34.192Z,0.00
2018-12-27T03:52:34.191Z,0.00
2018-12-27T03:53:34.175Z,0.00
2018-12-27T03:54:34.154Z,0.00
2018-12-27T03:55:34.147Z,0.00
2018-12-27T03:56:34.136Z,0.00
2018-12-27T03:57:34.125Z,0.00
2018-12-27T03:58:34.110Z,0.00
2018-12-27T03:59:34.109Z,0.00
2018-12-27T04:00:34.124Z,0.00
2018-12-27T04:01:34.088Z,0.00
2018-12-27T04:02:34.090Z,4.00
2018-12-27T04:03:34.149Z,0.00
2018-12-27T04:04:34.052Z,0.00
2018-12-27T04:05:34.044Z,0.00
2018-12-27T04:06:34.034Z,0.00
2018-12-27T04:07:34.041Z,0.00
2018-12-27T04:08:34.004Z,0.00
2018-12-27T04:09:33.992Z,0.00
2018-12-27T04:10:33.991Z,0.00
2018-12-27T04:11:33.981Z,0.00
2018-12-27T04:12:33.961Z,0.00
2018-12-27T04:13:33.952Z,0.00
2018-12-27T04:14:33.941Z,0.00
2018-12-27T04:15:33.932Z,0.00
2018-12-27T04:16:33.919Z,0.00
2018-12-27T04:17:33.917Z,0.00
2018-12-27T04:18:33.937Z,0.00
2018-12-27T04:19:33.888Z,0.00
2018-12-27T04:20:33.914Z,0.00
2018-12-27T04:21:33.860Z,0.00
2018-12-27T04:22:33.858Z,0.00
2018-12-27T04:23:33.841Z,0.00
2018-12-27T04:24:33.827Z,0.00
2018-12-27T04:25:33.832Z,0.00
2018-12-27T04:26:33.822Z,0.00
2018-12-27T04:27:33.810Z,0.00
2018-12-27T04:28:33.789Z,0.00
2018-12-27T04:29:33.778Z,0.00
2018-12-27T04:30:33.773Z,0.00
2018-12-27T04:31:33.751Z,0.00
2018-12-27T04:32:33.756Z,0.00
2018-12-27T04:33:33.752Z,0.00
2018-12-27T04:34:33.730Z,0.00
2018-12-27T04:35:33.716Z,0.00
2018-12-27T04:36:33.834Z,0.00
2018-12-27T04:37:33.692Z,0.00
2018-12-27T04:38:33.692Z,0.00
2018-12-27T04:39:33.688Z,0.00
2018-12-27T04:40:33.669Z,0.00
2018-12-27T04:41:33.652Z,0.00
2018-12-27T04:42:33.645Z,0.00
2018-12-27T04:43:33.632Z,0.00
2018-12-27T04:44:33.626Z,0.00
2018-12-27T04:45:33.648Z,0.00
2018-12-27T04:46:33.641Z,0.00
2018-12-27T04:47:33.631Z,0.00
2018-12-27T04:48:33.585Z,0.00
2018-12-27T04:49:33.568Z,0.00
2018-12-27T04:50:33.568Z,0.00
2018-12-27T04:51:33.573Z,0.00
2018-12-27T04:52:33.546Z,0.00
2018-12-27T04:53:33.527Z,0.00
2018-12-27T04:54:33.519Z,0.00
2018-12-27T04:55:33.533Z,0.00
2018-12-27T04:56:33.497Z,0.00
2018-12-27T04:57:33.507Z,0.00
2018-12-27T04:58:33.466Z,0.00
2018-12-27T04:59:33.461Z,0.00
2018-12-27T05:00:33.444Z,0.00
2018-12-27T05:01:33.439Z,0.00
2018-12-27T05:02:33.428Z,0.00
2018-12-27T05:03:33.422Z,0.00
2018-12-27T05:04:33.446Z,0.00
2018-12-27T05:05:33.394Z,0.00
2018-12-27T05:06:33.384Z,0.00
2018-12-27T05:07:33.379Z,0.00
2018-12-27T05:08:33.370Z,0.00
2018-12-27T05:09:33.350Z,0.00
2018-12-27T05:10:33.343Z,0.00
2018-12-27T05:11:33.331Z,0.00
2018-12-27T05:12:33.325Z,0.00
2018-12-27T05:13:33.311Z,0.00
2018-12-27T05:14:33.302Z,0.00
2018-12-27T05:15:33.298Z,0.00
2018-12-27T05:16:33.272Z,0.00
2018-12-27T05:17:33.269Z,0.00
2018-12-27T05:18:33.260Z,0.00
2018-12-27T05:19:33.246Z,0.00
2018-12-27T05:20:33.229Z,0.00
2018-12-27T05:21:33.227Z,0.00
2018-12-27T05:22:33.281Z,0.00
2018-12-27T05:23:33.200Z,0.00
2018-12-27T05:24:33.195Z,0.00
2018-12-27T05:25:33.219Z,0.00
2018-12-27T05:26:33.169Z,0.00
2018-12-27T05:27:33.160Z,0.00
2018-12-27T05:28:33.156Z,0.00
2018-12-27T05:29:33.627Z,0.00
2018-12-27T05:30:33.124Z,0.00
2018-12-27T05:31:33.113Z,0.00
2018-12-27T05:32:33.130Z,0.00
2018-12-27T05:33:33.114Z,0.00
2018-12-27T05:34:33.083Z,0.00
2018-12-27T05:35:33.072Z,0.00
2018-12-27T05:36:33.067Z,0.00
2018-12-27T05:37:33.057Z,0.00
2018-12-27T05:38:33.059Z,0.00
2018-12-27T05:39:33.035Z,0.00
2018-12-27T05:40:33.019Z,0.00
2018-12-27T05:41:33.014Z,0.00
2018-12-27T05:42:33.001Z,44.00
2018-12-27T05:43:32.991Z,44.00
2018-12-27T05:44:32.972Z,44.00
2018-12-27T05:45:32.972Z,44.00
2018-12-27T05:46:32.955Z,44.00
2018-12-27T05:47:32.959Z,44.00
2018-12-27T05:48:32.934Z,44.00
2018-12-27T05:49:32.925Z,44.00
2018-12-27T05:50:32.915Z,44.00
2018-12-27T05:51:32.900Z,44.00
2018-12-27T05:52:32.894Z,44.00
2018-12-27T05:53:32.883Z,44.00
2018-12-27T05:54:32.874Z,44.00
2018-12-27T05:55:34.412Z,44.00
2018-12-27T05:56:32.880Z,44.00
2018-12-27T05:57:32.857Z,44.00
2018-12-27T05:58:32.861Z,44.00
2018-12-27T05:59:32.822Z,44.00
2018-12-27T06:00:32.811Z,44.00
2018-12-27T06:01:32.844Z,44.00
2018-12-27T06:02:32.797Z,44.00
2018-12-27T06:03:32.782Z,44.00
2018-12-27T06:04:33.894Z,44.00
2018-12-27T06:05:32.754Z,44.00
2018-12-27T06:06:32.742Z,44.00
2018-12-27T06:07:32.753Z,44.00
2018-12-27T06:08:32.721Z,44.00
2018-12-27T06:09:32.708Z,44.00
2018-12-27T06:10:32.750Z,44.00
2018-12-27T06:11:32.752Z,44.00
2018-12-27T06:12:32.677Z,44.00
2018-12-27T06:13:32.669Z,44.00
2018-12-27T06:14:32.666Z,44.00
2018-12-27T06:15:32.660Z,44.00
2018-12-27T06:16:32.646Z,44.00
2018-12-27T06:17:32.630Z,44.00
2018-12-27T06:18:32.622Z,44.00
2018-12-27T06:19:32.612Z,44.00
2018-12-27T06:20:32.595Z,44.00
2018-12-27T06:21:32.596Z,44.00
2018-12-27T06:22:32.571Z,44.00
2018-12-27T06:23:32.565Z,44.00
2018-12-27T06:24:32.551Z,44.00
2018-12-27T06:25:32.543Z,44.00
2018-12-27T06:26:32.545Z,44.00
2018-12-27T06:27:32.519Z,44.00
2018-12-27T06:28:32.511Z,44.00
2018-12-27T06:29:32.500Z,44.00
2018-12-27T06:30:32.495Z,44.00
2018-12-27T06:31:32.506Z,44.00
2018-12-27T06:32:32.473Z,44.00
2018-12-27T06:33:32.455Z,44.00
2018-12-27T06:34:32.451Z,44.00
2018-12-27T06:35:32.445Z,44.00
2018-12-27T06:36:32.423Z,44.00
2018-12-27T06:37:32.412Z,44.00
2018-12-27T06:38:32.401Z,44.00
2018-12-27T06:39:32.389Z,44.00
2018-12-27T06:40:32.385Z,44.00
2018-12-27T06:41:32.373Z,48.00
2018-12-27T06:42:32.360Z,44.00
2018-12-27T06:43:32.365Z,44.00
2018-12-27T06:44:32.359Z,44.00
2018-12-27T06:45:32.340Z,48.00
2018-12-27T06:46:32.318Z,44.00
2018-12-27T06:47:32.306Z,44.00
2018-12-27T06:48:32.295Z,48.00
2018-12-27T06:49:32.282Z,48.00
2018-12-27T06:50:32.281Z,48.00
2018-12-27T06:51:32.264Z,52.00
2018-12-27T06:52:32.276Z,52.00
2018-12-27T06:53:32.243Z,52.00
2018-12-27T06:54:32.230Z,56.00
2018-12-27T06:55:32.223Z,56.00
2018-12-27T06:56:32.210Z,60.00
2018-12-27T06:57:32.207Z,56.00
2018-12-27T06:58:37.688Z,60.00
2018-12-27T06:59:33.180Z,64.00
2018-12-27T07:00:32.166Z,68.00
2018-12-27T07:01:32.156Z,72.00
2018-12-27T07:02:32.148Z,72.00
2018-12-27T07:03:32.157Z,72.00
2018-12-27T07:04:32.129Z,72.00
2018-12-27T07:05:32.128Z,76.00
2018-12-27T07:06:32.102Z,76.00
2018-12-27T07:07:32.117Z,76.00
2018-12-27T07:08:32.123Z,76.00
2018-12-27T07:09:32.114Z,80.00
2018-12-27T07:10:32.086Z,84.00
2018-12-27T07:11:32.100Z,92.00
2018-12-27T07:12:32.042Z,100.00
2018-12-27T07:13:32.030Z,108.00
2018-12-27T07:14:32.025Z,116.00
2018-12-27T07:15:32.012Z,128.00
2018-12-27T07:16:31.998Z,136.00
2018-12-27T07:17:31.990Z,148.00
2018-12-27T07:18:31.981Z,152.00
2018-12-27T07:19:31.962Z,168.00
2018-12-27T07:20:31.964Z,188.00
2018-12-27T07:21:31.995Z,200.00
2018-12-27T07:22:31.938Z,216.00
2018-12-27T07:23:31.966Z,232.00
2018-12-27T07:24:31.910Z,232.00
2018-12-27T07:25:31.913Z,244.00
2018-12-27T07:26:31.890Z,252.00
2018-12-27T07:27:31.893Z,264.00
2018-12-27T07:28:31.868Z,268.00
2018-12-27T07:29:31.861Z,272.00
2018-12-27T07:30:31.853Z,280.00
2018-12-27T07:31:31.859Z,292.00
2018-12-27T07:32:31.832Z,304.00
2018-12-27T07:33:31.841Z,320.00
2018-12-27T07:34:31.833Z,336.00
2018-12-27T07:35:31.807Z,348.00
2018-12-27T07:36:31.791Z,348.00
2018-12-27T07:37:31.775Z,360.00
2018-12-27T07:38:31.769Z,384.00
2018-12-27T07:39:31.759Z,428.00
2018-12-27T07:40:31.740Z,472.00
2018-12-27T07:41:31.729Z,492.00
2018-12-27T07:42:31.760Z,472.00
2018-12-27T07:43:31.707Z,460.00
2018-12-27T07:44:31.709Z,436.00
2018-12-27T07:45:31.699Z,464.00
2018-12-27T07:46:31.681Z,492.00
2018-12-27T07:47:31.693Z,508.00
2018-12-27T07:48:31.672Z,576.00
2018-12-27T07:49:31.647Z,632.00
2018-12-27T07:50:31.637Z,708.00
2018-12-27T07:51:31.651Z,756.00
2018-12-27T07:52:31.613Z,728.00
2018-12-27T07:53:31.608Z,716.00
2018-12-27T07:54:31.601Z,648.00
2018-12-27T07:55:31.590Z,700.00
2018-12-27T07:56:31.595Z,780.00
2018-12-27T07:57:31.559Z,816.00
2018-12-27T07:58:31.553Z,740.00
2018-12-27T07:59:31.540Z,552.00
2018-12-27T08:00:31.526Z,352.00
2018-12-27T08:01:31.525Z,256.00
2018-12-27T08:02:31.517Z,300.00
2018-12-27T08:03:31.493Z,248.00
2018-12-27T08:04:31.488Z,252.00
2018-12-27T08:05:31.476Z,232.00
2018-12-27T08:06:31.465Z,232.00
2018-12-27T08:07:31.491Z,244.00
2018-12-27T08:08:31.451Z,256.00
2018-12-27T08:09:31.436Z,276.00
2018-12-27T08:10:31.423Z,276.00
2018-12-27T08:11:31.414Z,292.00
2018-12-27T08:12:31.404Z,316.00
2018-12-27T08:13:31.417Z,308.00
2018-12-27T08:14:31.394Z,292.00
2018-12-27T08:15:31.372Z,320.00
2018-12-27T08:16:31.355Z,308.00
2018-12-27T08:17:31.348Z,336.00
2018-12-27T08:18:31.334Z,324.00
2018-12-27T08:19:31.331Z,324.00
2018-12-27T08:20:31.317Z,308.00
2018-12-27T08:21:31.340Z,308.00
2018-12-27T08:22:31.292Z,320.00
2018-12-27T08:23:31.284Z,320.00
2018-12-27T08:24:31.280Z,320.00
2018-12-27T08:25:31.270Z,320.00
2018-12-27T08:26:31.256Z,316.00
2018-12-27T08:27:31.241Z,356.00
2018-12-27T08:28:31.254Z,404.00
2018-12-27T08:29:31.220Z,392.00
2018-12-27T08:30:31.215Z,396.00
2018-12-27T08:31:31.212Z,376.00
2018-12-27T08:32:31.194Z,360.00
2018-12-27T08:33:31.180Z,340.00
2018-12-27T08:34:31.174Z,372.00
2018-12-27T08:35:31.155Z,364.00
2018-12-27T08:36:31.138Z,356.00
2018-12-27T08:37:31.139Z,344.00
2018-12-27T08:38:31.122Z,320.00
2018-12-27T08:39:31.114Z,312.00
2018-12-27T08:40:31.118Z,328.00
2018-12-27T08:41:31.095Z,324.00
2018-12-27T08:42:31.083Z,352.00
2018-12-27T08:43:31.074Z,356.00
2018-12-27T08:44:31.090Z,352.00
2018-12-27T08:45:31.064Z,408.00
2018-12-27T08:46:31.049Z,364.00
2018-12-27T08:47:31.023Z,384.00
2018-12-27T08:48:31.015Z,360.00
2018-12-27T08:49:31.038Z,384.00
2018-12-27T08:50:30.997Z,428.00
2018-12-27T08:51:30.983Z,404.00
2018-12-27T08:52:30.985Z,408.00
2018-12-27T08:53:30.970Z,372.00
2018-12-27T08:54:30.956Z,380.00
2018-12-27T08:55:30.970Z,388.00
2018-12-27T08:56:30.940Z,392.00
2018-12-27T08:57:30.919Z,356.00
2018-12-27T08:58:30.963Z,360.00
2018-12-27T08:59:30.901Z,348.00
2018-12-27T09:00:30.892Z,392.00
2018-12-27T09:01:30.877Z,404.00
2018-12-27T09:02:30.869Z,520.00
2018-12-27T09:03:30.860Z,464.00
2018-12-27T09:04:30.845Z,412.00
2018-12-27T09:05:30.834Z,412.00
2018-12-27T09:06:30.823Z,412.00
2018-12-27T09:07:30.817Z,464.00
2018-12-27T09:08:30.813Z,444.00
2018-12-27T09:09:30.809Z,456.00
2018-12-27T09:10:30.789Z,496.00
2018-12-27T09:11:30.792Z,480.00
2018-12-27T09:12:30.817Z,504.00
2018-12-27T09:13:30.752Z,460.00
2018-12-27T09:14:30.753Z,488.00
2018-12-27T09:15:30.734Z,452.00
2018-12-27T09:16:30.721Z,400.00
2018-12-27T09:17:30.799Z,424.00
2018-12-27T09:18:30.697Z,372.00
2018-12-27T09:19:30.687Z,408.00
2018-12-27T09:20:30.672Z,388.00
2018-12-27T09:21:30.665Z,368.00
2018-12-27T09:22:30.663Z,432.00
2018-12-27T09:23:30.646Z,420.00
2018-12-27T09:24:30.651Z,444.00
2018-12-27T09:25:30.624Z,432.00
2018-12-27T09:26:30.621Z,436.00
2018-12-27T09:27:30.681Z,488.00
2018-12-27T09:28:30.594Z,476.00
2018-12-27T09:29:30.595Z,488.00
2018-12-27T09:30:30.565Z,472.00
2018-12-27T09:31:30.686Z,540.00
2018-12-27T09:32:30.620Z,528.00
2018-12-27T09:33:30.543Z,532.00
2018-12-27T09:34:30.529Z,536.00
2018-12-27T09:35:30.522Z,516.00
2018-12-27T09:36:30.515Z,548.00
2018-12-27T09:37:30.504Z,496.00
2018-12-27T09:38:30.558Z,508.00
2018-12-27T09:39:30.498Z,564.00
2018-12-27T09:40:30.468Z,572.00
2018-12-27T09:41:30.478Z,528.00
2018-12-27T09:42:30.472Z,632.00
2018-12-27T09:43:30.558Z,608.00
2018-12-27T09:44:30.423Z,640.00
2018-12-27T09:45:30.411Z,576.00
2018-12-27T09:46:30.406Z,552.00
2018-12-27T09:47:30.395Z,548.00
2018-12-27T09:48:30.399Z,564.00
2018-12-27T09:49:30.365Z,524.00
2018-12-27T09:50:30.401Z,544.00
2018-12-27T09:51:31.591Z,604.00
2018-12-27T09:52:30.355Z,544.00
2018-12-27T09:53:30.337Z,488.00
2018-12-27T09:54:30.309Z,436.00
2018-12-27T09:55:30.305Z,456.00
2018-12-27T09:56:30.358Z,492.00
2018-12-27T09:57:30.279Z,572.00
2018-12-27T09:58:30.274Z,556.00
2018-12-27T09:59:30.259Z,568.00
2018-12-27T10:00:30.248Z,552.00
2018-12-27T10:01:30.246Z,576.00
2018-12-27T10:02:30.226Z,632.00
2018-12-27T10:03:30.302Z,660.00
2018-12-27T10:04:30.264Z,692.00
2018-12-27T10:05:33.847Z,640.00
2018-12-27T10:06:30.194Z,652.00
2018-12-27T10:07:30.171Z,724.00
2018-12-27T10:08:30.163Z,724.00
2018-12-27T10:09:30.164Z,784.00
2018-12-27T10:10:30.142Z,888.00
2018-12-27T10:11:30.135Z,732.00
2018-12-27T10:12:30.124Z,728.00
2018-12-27T10:13:30.114Z,680.00
2018-12-27T10:14:30.094Z,712.00
2018-12-27T10:15:30.182Z,648.00
2018-12-27T10:16:30.085Z,684.00
2018-12-27T10:17:30.125Z,800.00
2018-12-27T10:18:30.063Z,772.00
2018-12-27T10:19:30.060Z,716.00
2018-12-27T10:20:30.038Z,764.00
2018-12-27T10:21:30.045Z,836.00
2018-12-27T10:22:30.029Z,792.00
2018-12-27T10:23:30.004Z,848.00
2018-12-27T10:24:29.998Z,832.00
2018-12-27T10:25:29.983Z,776.00
2018-12-27T10:26:30.002Z,824.00
2018-12-27T10:27:29.972Z,740.00
2018-12-27T10:28:29.955Z,808.00
2018-12-27T10:29:29.945Z,752.00
2018-12-27T10:30:29.933Z,740.00
2018-12-27T10:31:29.921Z,760.00
2018-12-27T10:32:29.922Z,676.00
2018-12-27T10:33:29.910Z,672.00
2018-12-27T10:34:29.886Z,700.00
2018-12-27T10:35:29.892Z,672.00
2018-12-27T10:36:29.880Z,688.00
2018-12-27T10:37:29.867Z,708.00
2018-12-27T10:38:29.852Z,712.00
2018-12-27T10:39:29.840Z,672.00
2018-12-27T10:40:29.854Z,768.00
2018-12-27T10:41:29.824Z,724.00
2018-12-27T10:42:29.802Z,640.00
2018-12-27T10:43:29.786Z,680.00
2018-12-27T10:44:29.784Z,656.00
2018-12-27T10:45:29.777Z,684.00
2018-12-27T10:46:29.763Z,656.00
2018-12-27T10:47:29.756Z,672.00
2018-12-27T10:48:29.761Z,780.00
2018-12-27T10:49:29.748Z,664.00
2018-12-27T10:50:29.737Z,724.00
2018-12-27T10:51:29.712Z,720.00
2018-12-27T10:52:29.756Z,732.00
2018-12-27T10:53:29.731Z,768.00
2018-12-27T10:54:29.673Z,760.00
2018-12-27T10:55:29.680Z,760.00
2018-12-27T10:56:29.652Z,856.00
2018-12-27T10:57:29.644Z,788.00
2018-12-27T10:58:29.637Z,840.00
2018-12-27T10:59:29.631Z,728.00
2018-12-27T11:00:29.612Z,748.00
2018-12-27T11:01:29.604Z,808.00
2018-12-27T11:02:29.592Z,820.00
2018-12-27T11:03:30.673Z,776.00
2018-12-27T11:04:29.623Z,744.00
2018-12-27T11:05:29.562Z,880.00
2018-12-27T11:06:29.542Z,988.00
2018-12-27T11:07:29.553Z,1024.00
2018-12-27T11:08:29.534Z,1104.00
2018-12-27T11:09:29.538Z,1136.00
2018-12-27T11:10:29.523Z,1136.00
2018-12-27T11:11:29.507Z,1088.00
2018-12-27T11:12:29.487Z,1176.00
2018-12-27T11:13:29.531Z,1228.00
2018-12-27T11:14:29.467Z,1064.00
2018-12-27T11:15:29.453Z,1188.00
2018-12-27T11:16:29.443Z,1216.00
2018-12-27T11:17:29.428Z,1144.00
2018-12-27T11:18:29.422Z,1136.00
2018-12-27T11:19:29.410Z,1000.00
2018-12-27T11:20:29.404Z,1256.00
2018-12-27T11:21:29.391Z,1048.00
2018-12-27T11:22:29.382Z,916.00
2018-12-27T11:23:29.366Z,912.00
2018-12-27T11:24:29.356Z,892.00
2018-12-27T11:25:29.343Z,848.00
2018-12-27T11:26:29.351Z,844.00
2018-12-27T11:27:29.320Z,820.00
2018-12-27T11:28:29.307Z,784.00
2018-12-27T11:29:29.304Z,892.00
2018-12-27T11:30:29.291Z,708.00
2018-12-27T11:31:29.292Z,712.00
2018-12-27T11:32:29.267Z,792.00
2018-12-27T11:33:29.262Z,804.00
2018-12-27T11:34:29.244Z,724.00
2018-12-27T11:35:29.237Z,808.00
2018-12-27T11:36:29.231Z,812.00
2018-12-27T11:37:29.218Z,888.00
2018-12-27T11:38:29.206Z,812.00
2018-12-27T11:39:29.196Z,816.00
2018-12-27T11:40:29.181Z,944.00
2018-12-27T11:41:29.166Z,888.00
2018-12-27T11:42:29.175Z,852.00
2018-12-27T11:43:29.148Z,844.00
2018-12-27T11:44:29.145Z,876.00
2018-12-27T11:45:29.132Z,732.00
2018-12-27T11:46:29.126Z,784.00
2018-12-27T11:47:29.113Z,752.00
2018-12-27T11:48:29.099Z,620.00
2018-12-27T11:49:29.089Z,620.00
2018-12-27T11:50:29.096Z,652.00
2018-12-27T11:51:29.064Z,592.00
2018-12-27T11:52:29.061Z,592.00
2018-12-27T11:53:29.051Z,556.00
2018-12-27T11:54:29.043Z,548.00
2018-12-27T11:55:29.020Z,544.00
2018-12-27T11:56:29.018Z,492.00
2018-12-27T11:57:29.002Z,524.00
2018-12-27T11:58:29.001Z,592.00
2018-12-27T11:59:28.985Z,516.00
2018-12-27T12:00:28.971Z,556.00
2018-12-27T12:01:28.962Z,548.00
2018-12-27T12:02:31.228Z,500.00
2018-12-27T12:03:28.937Z,500.00
2018-12-27T12:04:28.939Z,540.00
2018-12-27T12:05:28.914Z,536.00
2018-12-27T12:06:28.946Z,512.00
2018-12-27T12:07:28.904Z,516.00
2018-12-27T12:08:28.881Z,568.00
2018-12-27T12:09:28.903Z,532.00
2018-12-27T12:10:28.946Z,532.00
2018-12-27T12:11:28.873Z,504.00
2018-12-27T12:12:28.842Z,552.00
2018-12-27T12:13:28.836Z,588.00
2018-12-27T12:14:28.835Z,556.00
2018-12-27T12:15:28.813Z,588.00
2018-12-27T12:16:28.813Z,564.00
2018-12-27T12:17:28.792Z,532.00
2018-12-27T12:18:28.781Z,564.00
2018-12-27T12:19:28.775Z,532.00
2018-12-27T12:20:28.753Z,556.00
2018-12-27T12:21:28.747Z,600.00
2018-12-27T12:22:28.766Z,620.00
2018-12-27T12:23:28.749Z,600.00
2018-12-27T12:24:28.713Z,616.00
2018-12-27T12:25:28.702Z,620.00
2018-12-27T12:26:28.695Z,620.00
2018-12-27T12:27:28.699Z,560.00
2018-12-27T12:28:28.673Z,688.00
2018-12-27T12:29:28.668Z,680.00
2018-12-27T12:30:28.657Z,704.00
2018-12-27T12:31:28.644Z,664.00
2018-12-27T12:32:28.633Z,784.00
2018-12-27T12:33:28.642Z,768.00
2018-12-27T12:34:28.606Z,708.00
2018-12-27T12:35:28.714Z,732.00
2018-12-27T12:36:28.603Z,724.00
2018-12-27T12:37:28.580Z,800.00
2018-12-27T12:38:28.642Z,948.00
2018-12-27T12:39:28.561Z,728.00
2018-12-27T12:40:28.587Z,712.00
2018-12-27T12:41:28.529Z,776.00
2018-12-27T12:42:33.049Z,808.00
2018-12-27T12:43:28.545Z,724.00
2018-12-27T12:44:28.509Z,848.00
2018-12-27T12:45:28.511Z,816.00
2018-12-27T12:46:28.480Z,936.00
2018-12-27T12:47:28.494Z,872.00
2018-12-27T12:48:28.520Z,776.00
2018-12-27T12:49:28.448Z,716.00
2018-12-27T12:50:28.455Z,752.00
2018-12-27T12:51:28.448Z,836.00
2018-12-27T12:52:28.430Z,920.00